Time;durP1;ratioP1;P1;durP2;ratioP2;P2;SDS_P1;SDS_P2;PMS_P1;PMS_P2;Temp;Humidity;BMP_temperature;BMP_pressure;BME280_temperature;BME280_humidity;BME280_pressure;Samples;Min_cycle;Max_cycle;Signal;HPM_P1;HPM_P2
2022/12/16 00:02:59;;;;;;;373.20;126.40;;;;;;;-6.01;68.87;99932.60;126917;1292;107526;-75
2022/12/16 00:06:05;;;;;;;397.60;136.60;;;;;;;-6.00;68.96;99927.17;127009;1278;108481;-75
2022/12/16 00:09:11;;;;;;;423.10;141.40;;;;;;;-5.98;68.91;99923.63;126840;1286;107559;-75
2022/12/16 00:12:16;;;;;;;365.60;125.30;;;;;;;-5.95;68.92;99920.40;126876;1286;107435;-74
2022/12/16 00:15:22;;;;;;;361.80;119.60;;;;;;;-5.92;69.08;99919.40;126932;1285;108758;-75
2022/12/16 00:18:27;;;;;;;348.40;121.40;;;;;;;-5.92;68.93;99924.61;126890;1279;107605;-75
2022/12/16 00:21:32;;;;;;;343.10;115.80;;;;;;;-5.89;69.41;99923.27;126932;1279;107546;-74
2022/12/16 00:24:38;;;;;;;343.50;115.50;;;;;;;-5.84;69.20;99921.55;126947;1280;107527;-75
2022/12/16 00:27:43;;;;;;;347.60;116.10;;;;;;;-5.79;69.58;99925.17;127050;1279;107426;-77
2022/12/16 00:30:50;;;;;;;320.70;110.10;;;;;;;-5.75;69.46;99929.16;126970;1278;106527;-76
2022/12/16 00:33:58;;;;;;;314.20;106.50;;;;;;;-5.74;69.58;99928.77;126963;1288;107575;-76
2022/12/16 00:37:03;;;;;;;314.70;111.10;;;;;;;-5.71;69.50;99921.04;126873;1284;108229;-76
2022/12/16 00:40:11;;;;;;;312.40;106.00;;;;;;;-5.68;69.46;99916.43;126856;1286;107975;-76
2022/12/16 00:43:17;;;;;;;316.50;104.40;;;;;;;-5.64;69.60;99917.85;126894;1286;107439;-76
2022/12/16 00:46:22;;;;;;;300.20;104.40;;;;;;;-5.61;69.79;99910.27;126863;1284;107353;-76
2022/12/16 00:49:27;;;;;;;301.40;104.70;;;;;;;-5.60;69.71;99907.79;126909;1299;107414;-77
2022/12/16 00:52:33;;;;;;;286.40;100.80;;;;;;;-5.57;69.96;99913.91;126814;1278;107494;-75
2022/12/16 00:55:38;;;;;;;285.20;95.00;;;;;;;-5.54;69.98;99919.50;126910;1278;107509;-76
2022/12/16 00:58:44;;;;;;;283.40;96.90;;;;;;;-5.50;69.81;99915.55;126910;1278;107506;-78
2022/12/16 01:01:49;;;;;;;295.30;97.80;;;;;;;-5.47;69.78;99916.85;127026;1285;107371;-77
2022/12/16 01:04:55;;;;;;;280.50;99.10;;;;;;;-5.46;69.99;99920.96;126936;1284;106551;-75
2022/12/16 01:08:00;;;;;;;274.40;94.10;;;;;;;-5.44;69.88;99923.48;126919;1286;107497;-74
2022/12/16 01:11:06;;;;;;;293.90;99.20;;;;;;;-5.41;69.95;99928.20;126902;1279;107547;-74
2022/12/16 01:14:11;;;;;;;257.40;90.40;;;;;;;-5.40;70.10;99921.07;126946;1279;107496;-74
2022/12/16 01:17:16;;;;;;;276.40;95.70;;;;;;;-5.48;70.14;99920.67;126915;1286;106472;-73
2022/12/16 01:20:22;;;;;;;269.00;93.20;;;;;;;-5.49;70.12;99909.45;127081;1271;107601;-74
2022/12/16 01:23:27;;;;;;;278.80;97.40;;;;;;;-5.46;70.29;99897.91;126861;1278;107421;-75
2022/12/16 01:26:34;;;;;;;281.00;97.50;;;;;;;-5.44;70.24;99897.28;125968;1279;1272428;-74
2022/12/16 01:29:39;;;;;;;305.30;104.70;;;;;;;-5.42;70.55;99897.73;126844;1286;107803;-74
2022/12/16 01:32:45;;;;;;;259.60;93.90;;;;;;;-5.40;70.41;99884.85;126759;1287;107421;-74
2022/12/16 01:35:50;;;;;;;155.90;58.30;;;;;;;-5.40;70.65;99874.79;126913;1280;107439;-75
2022/12/16 01:38:55;;;;;;;119.90;48.50;;;;;;;-5.38;71.02;99871.08;126869;1286;107521;-74
2022/12/16 01:42:01;;;;;;;103.70;42.20;;;;;;;-5.37;71.35;99867.20;126849;1279;107391;-73
2022/12/16 01:45:31;;;;;;;160.70;68.30;;;;;;;-5.33;71.40;99865.33;126973;1286;109244;-75
2022/12/16 01:48:44;;;;;;;122.00;50.20;;;;;;;-5.26;71.28;99868.50;126899;1286;107475;-75
2022/12/16 01:51:48;;;;;;;;;;;;;;;-5.18;71.25;99868.85;126891;1279;107657;-76
2022/12/16 01:54:58;;;;;;;108.40;39.60;;;;;;;-5.05;71.38;99874.73;127038;1286;108643;-75
2022/12/16 01:58:09;;;;;;;100.80;39.60;;;;;;;-4.93;71.56;99872.17;126933;1295;107620;-76
2022/12/16 02:01:16;;;;;;;107.60;42.40;;;;;;;-4.85;71.77;99875.45;126937;1292;107485;-75
2022/12/16 02:04:22;;;;;;;96.40;39.80;;;;;;;-4.75;71.73;99886.30;126975;1285;107503;-76
2022/12/16 02:07:27;;;;;;;132.10;50.80;;;;;;;-4.72;71.66;99885.32;126829;1286;107467;-75
2022/12/16 02:10:50;;;;;;;106.50;42.00;;;;;;;-4.71;71.61;99885.81;126788;1279;107522;-76
2022/12/16 02:14:22;;;;;;;90.00;37.40;;;;;;;-4.70;71.65;99878.49;127124;1279;107628;-76
2022/12/16 02:17:36;;;;;;;94.00;38.40;;;;;;;-4.68;71.93;99873.20;127012;1295;107288;-75
2022/12/16 02:21:06;;;;;;;89.50;36.80;;;;;;;-4.64;71.92;99866.42;126930;1279;107569;-75
2022/12/16 02:25:00;;;;;;;94.40;37.30;;;;;;;-4.61;72.01;99859.36;127225;1278;107433;-75
2022/12/16 02:28:12;;;;;;;88.40;34.70;;;;;;;-4.59;72.03;99854.55;127020;1272;107578;-75
2022/12/16 02:31:24;;;;;;;85.80;36.30;;;;;;;-4.58;72.18;99860.41;127060;1279;107514;-76
2022/12/16 02:34:39;;;;;;;87.70;36.80;;;;;;;-4.57;72.43;99847.72;127103;1278;107534;-75
2022/12/16 02:37:52;;;;;;;86.90;33.80;;;;;;;-4.58;72.57;99832.98;126937;1278;107607;-75
2022/12/16 02:41:03;;;;;;;82.80;33.50;;;;;;;-4.59;72.48;99826.46;126917;1292;107264;-75
2022/12/16 02:44:11;;;;;;;79.80;33.50;;;;;;;-4.59;72.71;99824.91;126881;1279;107345;-74
2022/12/16 02:47:16;;;;;;;78.90;34.50;;;;;;;-4.60;72.77;99815.76;127191;1286;107489;-75
2022/12/16 02:50:26;;;;;;;86.10;33.00;;;;;;;-4.61;72.59;99811.11;126840;1285;108651;-75
2022/12/16 02:53:34;;;;;;;86.50;34.70;;;;;;;-4.61;72.70;99814.73;126894;1279;108679;-73
2022/12/16 02:56:53;;;;;;;78.80;33.50;;;;;;;-4.60;73.05;99820.27;126770;1280;107589;-76
2022/12/16 03:00:03;;;;;;;68.20;30.10;;;;;;;-4.59;73.12;99822.83;126864;1279;107544;-74
2022/12/16 03:03:12;;;;;;;67.60;29.30;;;;;;;-4.57;73.00;99821.16;127194;1280;107524;-73
2022/12/16 03:06:19;;;;;;;68.30;30.10;;;;;;;-4.52;72.96;99824.95;126904;1278;105988;-73
2022/12/16 03:09:29;;;;;;;72.90;30.90;;;;;;;-4.45;73.23;99826.52;127053;1286;107558;-73
2022/12/16 03:12:38;;;;;;;72.50;28.80;;;;;;;-4.34;73.12;99819.80;127244;1284;107618;-73
2022/12/16 03:15:46;;;;;;;77.00;30.00;;;;;;;-4.25;73.07;99816.64;127136;1280;108411;-73
2022/12/16 03:18:55;;;;;;;76.40;32.30;;;;;;;-4.19;73.16;99810.77;127107;1286;107371;-72
2022/12/16 03:22:07;;;;;;;75.30;31.20;;;;;;;-4.17;73.01;99799.89;127050;1286;107513;-74
2022/12/16 03:25:13;;;;;;;57.60;24.50;;;;;;;-4.14;73.12;99787.44;127118;1279;107526;-73
2022/12/16 03:28:32;;;;;;;71.80;29.80;;;;;;;-4.17;73.03;99780.98;126858;1278;107491;-73
2022/12/16 03:31:41;;;;;;;68.50;29.30;;;;;;;-4.19;73.18;99774.45;126848;1284;107601;-74
2022/12/16 03:34:51;;;;;;;72.80;31.40;;;;;;;-4.19;73.28;99772.91;127044;1278;107277;-74
2022/12/16 03:37:59;;;;;;;68.60;29.10;;;;;;;-4.20;73.25;99758.70;126923;1284;107522;-74
2022/12/16 03:41:06;;;;;;;64.00;29.20;;;;;;;-4.23;73.20;99753.96;126979;1284;109266;-72
2022/12/16 03:44:12;;;;;;;67.00;28.00;;;;;;;-4.28;73.51;99756.50;127030;1284;108672;-74
2022/12/16 03:47:18;;;;;;;67.40;28.50;;;;;;;-4.34;73.58;99761.77;127042;1279;107553;-74
2022/12/16 03:50:29;;;;;;;69.50;29.60;;;;;;;-4.35;73.53;99758.88;126873;1295;107222;-72
2022/12/16 03:53:34;;;;;;;60.40;26.50;;;;;;;-4.36;73.58;99760.13;126784;1279;105971;-77
2022/12/16 03:56:39;;;;;;;65.30;28.70;;;;;;;-4.38;73.58;99759.53;126753;1295;108671;-76
2022/12/16 03:59:45;;;;;;;71.20;33.10;;;;;;;-4.39;73.62;99758.38;126875;1286;107525;-74
2022/12/16 04:02:50;;;;;;;65.30;27.70;;;;;;;-4.40;73.91;99756.85;126842;1284;108621;-74
2022/12/16 04:05:57;;;;;;;71.60;33.60;;;;;;;-4.42;73.98;99752.27;126956;1292;107643;-73
2022/12/16 04:09:02;;;;;;;61.30;28.90;;;;;;;-4.46;73.87;99750.20;127208;1279;107981;-73
2022/12/16 04:25:46;;;;;;;57.20;24.00;;;;;;;-4.15;74.04;99742.16;127025;1281;107334;-74
2022/12/16 04:28:51;;;;;;;62.80;26.40;;;;;;;-4.09;74.00;99746.05;126836;1286;107610;-75
2022/12/16 04:31:57;;;;;;;60.10;25.00;;;;;;;-4.07;74.05;99744.23;126890;1286;107466;-73
